createdAt,value
2023-06-10T00:02:15.617Z,4.75
2023-06-10T00:04:42.989Z,5.15
2023-06-10T00:07:11.191Z,4.57
2023-06-10T00:09:38.807Z,4.80
2023-06-10T00:12:10.813Z,4.18
2023-06-10T00:14:40.184Z,4.50
2023-06-10T00:17:10.927Z,4.80
2023-06-10T00:19:42.999Z,4.70
2023-06-10T00:22:11.856Z,4.78
2023-06-10T00:24:39.177Z,4.10
2023-06-10T00:27:08.201Z,4.70
2023-06-10T00:29:35.171Z,5.22
2023-06-10T00:32:02.256Z,4.85
2023-06-10T00:34:29.186Z,4.85
2023-06-10T00:36:55.777Z,5.15
2023-06-10T00:39:23.206Z,4.32
2023-06-10T00:41:50.570Z,4.60
2023-06-10T00:44:17.488Z,4.75
2023-06-10T00:46:45.058Z,4.78
2023-06-10T00:49:11.960Z,5.40
2023-06-10T00:51:38.886Z,5.43
2023-06-10T00:54:08.582Z,5.43
2023-06-10T00:56:36.310Z,5.65
2023-06-10T00:59:03.507Z,4.50
2023-06-10T01:01:30.878Z,5.07
2023-06-10T01:03:59.858Z,4.75
2023-06-10T01:06:56.178Z,5.40
2023-06-10T01:10:01.596Z,5.50
2023-06-10T01:12:42.548Z,4.70
2023-06-10T01:15:11.647Z,4.50
2023-06-10T01:18:10.535Z,5.25
2023-06-10T01:20:42.328Z,4.85
2023-06-10T01:23:09.884Z,4.50
2023-06-10T01:25:40.488Z,4.70
2023-06-10T01:28:13.582Z,4.95
2023-06-10T01:30:57.590Z,5.00
2023-06-10T01:33:30.467Z,5.15
2023-06-10T01:35:59.458Z,4.93
2023-06-10T01:38:28.443Z,4.97
2023-06-10T01:40:56.779Z,5.63
2023-06-10T01:43:24.764Z,5.03
2023-06-10T01:45:51.634Z,5.63
2023-06-10T01:48:18.268Z,5.80
2023-06-10T01:50:45.184Z,5.72
2023-06-10T01:53:12.048Z,5.03
2023-06-10T01:55:38.774Z,5.38
2023-06-10T01:58:06.151Z,4.68
2023-06-10T02:00:32.900Z,4.95
2023-06-10T02:02:59.773Z,5.80
2023-06-10T02:05:26.836Z,5.20
2023-06-10T02:07:53.667Z,5.47
2023-06-10T02:10:22.381Z,5.45
2023-06-10T02:12:50.637Z,5.40
2023-06-10T02:15:17.406Z,5.15
2023-06-10T02:17:47.339Z,5.70
2023-06-10T02:20:14.723Z,5.20
2023-06-10T02:22:41.760Z,5.22
2023-06-10T02:25:09.428Z,5.43
2023-06-10T02:27:36.255Z,5.30
2023-06-10T02:30:03.155Z,5.18
2023-06-10T02:32:32.727Z,5.38
2023-06-10T02:35:01.220Z,5.10
2023-06-10T02:37:28.769Z,4.55
2023-06-10T02:39:56.637Z,4.57
2023-06-10T02:42:24.176Z,5.15
2023-06-10T02:44:52.577Z,4.63
2023-06-10T02:47:33.306Z,5.20
2023-06-10T02:50:01.012Z,5.93
2023-06-10T02:52:31.190Z,5.43
2023-06-10T02:54:58.292Z,5.03
2023-06-10T02:57:24.941Z,5.10
2023-06-10T02:59:52.501Z,5.30
2023-06-10T03:02:19.806Z,5.65
2023-06-10T03:04:51.562Z,5.18
2023-06-10T03:07:19.950Z,4.72
2023-06-10T03:09:47.154Z,4.90
2023-06-10T03:12:15.229Z,5.28
2023-06-10T03:14:46.159Z,4.32
2023-06-10T03:17:13.195Z,5.13
2023-06-10T03:19:42.171Z,5.28
2023-06-10T03:22:14.066Z,4.60
2023-06-10T03:24:54.471Z,5.00
2023-06-10T03:27:21.516Z,5.68
2023-06-10T03:29:52.187Z,5.50
2023-06-10T03:32:19.882Z,4.80
2023-06-10T03:34:46.551Z,5.00
2023-06-10T03:37:13.813Z,4.82
2023-06-10T03:39:40.704Z,5.13
2023-06-10T03:42:07.853Z,4.82
2023-06-10T03:44:35.035Z,4.47
2023-06-10T03:47:01.738Z,5.18
2023-06-10T03:49:30.637Z,5.32
2023-06-10T03:52:00.629Z,4.90
2023-06-10T03:54:27.558Z,4.72
2023-06-10T03:56:54.171Z,5.18
2023-06-10T03:59:21.015Z,5.10
2023-06-10T04:01:47.818Z,5.40
2023-06-10T04:04:17.580Z,5.68
2023-06-10T04:06:45.617Z,5.97
2023-06-10T04:09:12.970Z,5.05
2023-06-10T04:11:40.372Z,6.00
2023-06-10T04:14:07.490Z,5.22
2023-06-10T04:16:35.658Z,5.85
2023-06-10T04:19:03.157Z,5.80
2023-06-10T04:21:29.858Z,5.22
2023-06-10T04:23:56.579Z,5.90
2023-06-10T04:26:23.288Z,5.70
2023-06-10T04:28:52.110Z,5.15
2023-06-10T04:31:19.005Z,5.75
2023-06-10T04:33:46.578Z,5.68
2023-06-10T04:36:13.561Z,5.82
2023-06-10T04:38:41.796Z,5.85
2023-06-10T04:41:09.069Z,6.47
2023-06-10T04:43:36.957Z,6.53
2023-06-10T04:46:06.364Z,6.38
2023-06-10T04:48:36.530Z,6.13
2023-06-10T04:51:04.286Z,5.82
2023-06-10T04:53:31.716Z,6.22
2023-06-10T04:56:01.366Z,5.75
2023-06-10T04:58:27.966Z,5.50
2023-06-10T05:00:54.600Z,5.50
2023-06-10T05:03:21.472Z,6.15
2023-06-10T05:05:48.130Z,5.85
2023-06-10T05:08:14.863Z,5.65
2023-06-10T05:10:41.695Z,6.28
2023-06-10T05:13:08.312Z,6.15
2023-06-10T05:15:34.898Z,6.00
2023-06-10T05:18:04.005Z,5.90
2023-06-10T05:20:31.077Z,5.57
2023-06-10T05:22:57.779Z,5.20
2023-06-10T05:25:27.591Z,5.57
2023-06-10T05:27:54.499Z,5.45
2023-06-10T05:30:21.250Z,4.30
2023-06-10T05:32:49.509Z,4.90
2023-06-10T05:35:16.244Z,5.18
2023-06-10T05:37:43.179Z,5.35
2023-06-10T05:40:10.632Z,5.25
2023-06-10T05:42:37.252Z,5.10
2023-06-10T05:45:04.477Z,5.75
2023-06-10T05:47:31.479Z,5.43
2023-06-10T05:49:58.390Z,5.20
2023-06-10T05:52:24.996Z,4.97
2023-06-10T05:54:51.871Z,6.63
2023-06-10T05:57:18.758Z,4.78
2023-06-10T05:59:45.439Z,5.57
2023-06-10T06:02:12.198Z,5.63
2023-06-10T06:04:38.906Z,5.13
2023-06-10T06:07:06.869Z,5.70
2023-06-10T06:09:33.462Z,4.78
2023-06-10T06:12:00.453Z,5.28
2023-06-10T06:14:27.095Z,5.20
2023-06-10T06:16:53.703Z,5.40
2023-06-10T06:19:20.417Z,5.47
2023-06-10T06:21:47.105Z,5.22
2023-06-10T06:24:13.895Z,5.90
2023-06-10T06:26:40.535Z,4.60
2023-06-10T06:29:07.141Z,5.05
2023-06-10T06:31:34.068Z,5.05
2023-06-10T06:34:00.791Z,4.55
2023-06-10T06:36:27.777Z,4.72
2023-06-10T06:38:54.489Z,4.80
2023-06-10T06:41:23.130Z,4.07
2023-06-10T06:43:49.809Z,5.20
2023-06-10T06:46:24.356Z,4.40
2023-06-10T06:48:51.346Z,4.70
2023-06-10T06:51:18.119Z,4.47
2023-06-10T06:53:48.012Z,4.82
2023-06-10T06:56:14.846Z,4.20
2023-06-10T06:58:42.506Z,3.95
2023-06-10T07:01:09.559Z,3.85
2023-06-10T07:03:36.313Z,3.95
2023-06-10T07:06:03.153Z,4.63
2023-06-10T07:08:30.119Z,5.10
2023-06-10T07:10:57.233Z,4.15
2023-06-10T07:13:23.929Z,4.50
2023-06-10T07:15:50.690Z,3.80
2023-06-10T07:18:18.616Z,4.35
2023-06-10T07:20:45.657Z,4.28
2023-06-10T07:23:12.618Z,3.80
2023-06-10T07:25:39.451Z,4.10
2023-06-10T07:28:06.109Z,3.30
2023-06-10T07:30:32.847Z,3.60
2023-06-10T07:32:59.820Z,3.67
2023-06-10T07:35:26.809Z,3.67
2023-06-10T07:37:53.408Z,3.63
2023-06-10T07:40:20.131Z,3.47
2023-06-10T07:42:46.767Z,3.65
2023-06-10T07:45:13.428Z,3.22
2023-06-10T07:47:40.216Z,3.20
2023-06-10T07:50:07.046Z,3.75
2023-06-10T07:52:33.859Z,3.97
2023-06-10T07:55:00.663Z,3.25
2023-06-10T07:57:27.625Z,3.83
2023-06-10T07:59:55.986Z,2.97
2023-06-10T08:02:25.492Z,2.80
2023-06-10T08:04:52.814Z,2.83
2023-06-10T08:07:20.097Z,3.03
2023-06-10T08:09:46.868Z,2.47
2023-06-10T08:12:13.700Z,2.95
2023-06-10T08:14:43.345Z,2.92
2023-06-10T08:17:09.996Z,2.83
2023-06-10T08:19:36.677Z,3.22
2023-06-10T08:22:03.657Z,2.92
2023-06-10T08:24:30.331Z,3.17
2023-06-10T08:26:58.107Z,3.17
2023-06-10T08:29:24.802Z,2.97
2023-06-10T08:31:51.573Z,2.40
2023-06-10T08:34:18.304Z,2.90
2023-06-10T08:36:46.430Z,2.60
2023-06-10T08:39:13.363Z,2.78
2023-06-10T08:41:44.913Z,2.90
2023-06-10T08:44:30.031Z,3.22
2023-06-10T08:47:01.561Z,2.58
2023-06-10T08:49:31.881Z,2.30
2023-06-10T08:52:03.428Z,2.47
2023-06-10T08:54:35.698Z,3.13
2023-06-10T08:57:06.926Z,2.70
2023-06-10T08:59:33.561Z,2.83
2023-06-10T09:02:01.871Z,2.30
2023-06-10T09:04:28.992Z,2.40
2023-06-10T09:06:57.139Z,2.35
2023-06-10T09:09:24.545Z,2.20
2023-06-10T09:11:51.489Z,2.40
2023-06-10T09:14:18.084Z,2.17
2023-06-10T09:16:46.863Z,2.30
2023-06-10T09:19:14.975Z,2.65
2023-06-10T09:21:42.145Z,2.47
2023-06-10T09:24:09.852Z,2.50
2023-06-10T09:26:36.585Z,2.47
2023-06-10T09:29:09.845Z,2.40
2023-06-10T09:31:38.206Z,2.25
2023-06-10T09:34:15.108Z,2.40
2023-06-10T09:36:42.265Z,2.63
2023-06-10T09:39:17.080Z,2.30
2023-06-10T09:41:44.691Z,2.00
2023-06-10T09:44:19.657Z,2.38
2023-06-10T09:46:48.244Z,1.92
2023-06-10T09:49:15.081Z,1.98
2023-06-10T09:51:55.872Z,2.60
2023-06-10T09:54:23.219Z,1.88
2023-06-10T09:56:52.478Z,1.90
2023-06-10T09:59:38.818Z,2.08
2023-06-10T10:02:06.427Z,3.28
2023-06-10T10:04:35.802Z,1.75
2023-06-10T10:07:03.153Z,2.03
2023-06-10T10:09:30.008Z,1.70
2023-06-10T10:11:59.025Z,1.50
2023-06-10T10:14:26.591Z,1.90
2023-06-10T10:16:53.921Z,2.03
2023-06-10T10:19:32.336Z,1.83
2023-06-10T10:22:12.114Z,2.15
2023-06-10T10:24:47.688Z,1.77
2023-06-10T10:27:38.410Z,1.70
2023-06-10T10:32:41.756Z,2.00
2023-06-10T10:35:19.242Z,2.13
2023-06-10T10:37:46.484Z,2.50
2023-06-10T10:40:13.695Z,1.77
2023-06-10T10:42:41.609Z,1.45
2023-06-10T10:45:10.628Z,1.88
2023-06-10T10:47:39.842Z,1.75
2023-06-10T10:50:17.770Z,1.90
2023-06-10T10:52:54.803Z,1.88
2023-06-10T10:55:22.323Z,1.90
2023-06-10T10:58:06.928Z,2.00
2023-06-10T11:00:35.770Z,1.98
2023-06-10T11:03:08.800Z,1.95
2023-06-10T11:05:51.006Z,2.20
2023-06-10T11:10:57.271Z,1.90
2023-06-10T11:13:26.222Z,2.17
2023-06-10T11:15:53.532Z,1.73
2023-06-10T11:18:41.334Z,2.15
2023-06-10T11:21:08.160Z,2.33
2023-06-10T11:23:40.257Z,1.83
2023-06-10T11:26:32.697Z,1.95
2023-06-10T11:28:59.555Z,2.17
2023-06-10T11:31:27.388Z,1.75
2023-06-10T11:33:57.806Z,1.83
2023-06-10T11:36:28.437Z,1.90
2023-06-10T11:41:28.537Z,2.03
2023-06-10T11:43:57.839Z,2.10
2023-06-10T11:46:27.787Z,1.85
2023-06-10T11:49:01.666Z,1.98
2023-06-10T11:51:31.308Z,1.92
2023-06-10T11:53:57.942Z,2.03
2023-06-10T11:56:27.929Z,2.03
2023-06-10T11:58:56.985Z,2.03
2023-06-10T12:01:28.685Z,1.85
2023-06-10T12:03:59.227Z,2.03
2023-06-10T12:06:25.909Z,1.80
2023-06-10T12:08:52.647Z,2.00
2023-06-10T12:11:19.791Z,1.77
2023-06-10T12:13:49.695Z,1.80
2023-06-10T12:16:17.344Z,1.88
2023-06-10T12:18:47.916Z,2.08
2023-06-10T12:21:18.523Z,1.70
2023-06-10T12:24:02.158Z,1.70
2023-06-10T12:26:43.317Z,1.83
2023-06-10T12:29:15.902Z,1.88
2023-06-10T12:32:04.168Z,1.80
2023-06-10T12:34:30.989Z,1.38
2023-06-10T12:36:57.699Z,1.52
2023-06-10T12:39:24.442Z,1.73
2023-06-10T12:41:52.719Z,1.65
2023-06-10T12:44:19.337Z,1.45
2023-06-10T12:46:45.954Z,1.60
2023-06-10T12:49:21.953Z,2.00
2023-06-10T12:51:49.088Z,1.67
2023-06-10T12:54:16.245Z,1.60
2023-06-10T12:56:42.802Z,1.77
2023-06-10T12:59:09.589Z,1.50
2023-06-10T13:01:37.051Z,2.60
2023-06-10T13:04:06.092Z,1.70
2023-06-10T13:06:34.577Z,1.20
2023-06-10T13:09:01.293Z,1.50
2023-06-10T13:11:27.955Z,1.30
2023-06-10T13:13:54.598Z,1.42
2023-06-10T13:16:21.487Z,1.48
2023-06-10T13:18:48.113Z,1.60
2023-06-10T13:21:14.791Z,1.60
2023-06-10T13:23:41.485Z,1.65
2023-06-10T13:26:08.263Z,1.60
2023-06-10T13:28:36.137Z,1.90
2023-06-10T13:31:02.960Z,2.15
2023-06-10T13:33:29.831Z,1.27
2023-06-10T13:35:56.384Z,1.67
2023-06-10T13:38:23.031Z,1.40
2023-06-10T13:40:49.743Z,1.55
2023-06-10T13:43:16.625Z,1.83
2023-06-10T13:45:43.520Z,1.40
2023-06-10T13:48:10.856Z,1.88
2023-06-10T13:50:38.829Z,1.80
2023-06-10T13:53:05.468Z,1.55
2023-06-10T13:55:32.190Z,1.83
2023-06-10T13:57:58.799Z,1.77
2023-06-10T14:00:26.213Z,1.63
2023-06-10T14:02:53.058Z,1.90
2023-06-10T14:05:19.885Z,1.60
2023-06-10T14:07:46.960Z,2.03
2023-06-10T14:10:13.853Z,1.70
2023-06-10T14:12:40.967Z,1.65
2023-06-10T14:15:08.466Z,1.65
2023-06-10T14:17:35.420Z,1.65
2023-06-10T14:20:02.188Z,1.60
2023-06-10T14:22:28.743Z,1.40
2023-06-10T14:24:55.506Z,1.73
2023-06-10T14:27:22.184Z,1.88
2023-06-10T14:29:48.726Z,2.22
2023-06-10T14:32:17.730Z,1.70
2023-06-10T14:34:45.699Z,1.40
2023-06-10T14:37:12.543Z,1.80
2023-06-10T14:39:39.295Z,2.10
2023-06-10T14:42:06.738Z,2.10
2023-06-10T14:44:33.483Z,1.70
2023-06-10T14:47:00.111Z,1.90
2023-06-10T14:49:26.754Z,1.63
2023-06-10T14:51:53.724Z,1.80
2023-06-10T14:54:20.462Z,1.90
2023-06-10T14:56:47.105Z,1.80
2023-06-10T14:59:13.849Z,2.08
2023-06-10T15:01:40.661Z,2.00
2023-06-10T15:04:07.608Z,1.67
2023-06-10T15:06:34.307Z,2.08
2023-06-10T15:09:00.927Z,2.20
2023-06-10T15:11:27.598Z,1.70
2023-06-10T15:13:54.170Z,1.73
2023-06-10T15:16:21.136Z,1.92
2023-06-10T15:18:48.014Z,2.08
2023-06-10T15:21:15.069Z,1.50
2023-06-10T15:23:41.801Z,1.95
2023-06-10T15:26:08.585Z,1.75
2023-06-10T15:28:35.471Z,1.77
2023-06-10T15:31:02.213Z,1.65
2023-06-10T15:33:28.858Z,1.70
2023-06-10T15:35:55.723Z,1.60
2023-06-10T15:38:22.502Z,1.67
2023-06-10T15:40:49.101Z,1.75
2023-06-10T15:43:15.782Z,2.00
2023-06-10T15:45:42.543Z,1.75
2023-06-10T15:48:09.327Z,1.80
2023-06-10T15:50:36.311Z,1.83
2023-06-10T15:53:03.070Z,1.90
2023-06-10T15:55:30.258Z,1.52
2023-06-10T15:57:58.204Z,2.13
2023-06-10T16:00:24.864Z,1.77
2023-06-10T16:02:51.777Z,1.52
2023-06-10T16:05:18.499Z,1.50
2023-06-10T16:07:45.254Z,1.30
2023-06-10T16:10:12.030Z,1.20
2023-06-10T16:12:38.634Z,1.25
2023-06-10T16:15:06.241Z,1.10
2023-06-10T16:17:33.480Z,1.60
2023-06-10T16:20:00.390Z,1.50
2023-06-10T16:22:27.559Z,1.45
2023-06-10T16:24:54.125Z,1.40
2023-06-10T16:27:21.045Z,1.42
2023-06-10T16:29:47.866Z,1.60
2023-06-10T16:32:14.493Z,2.35
2023-06-10T16:34:41.204Z,1.30
2023-06-10T16:37:07.771Z,1.58
2023-06-10T16:39:34.720Z,2.05
2023-06-10T16:42:04.250Z,1.80
2023-06-10T16:44:30.906Z,2.00
2023-06-10T16:46:57.631Z,1.70
2023-06-10T16:49:24.524Z,1.90
2023-06-10T16:51:51.481Z,1.52
2023-06-10T16:54:18.727Z,1.88
2023-06-10T16:56:45.784Z,2.00
2023-06-10T16:59:12.538Z,1.90
2023-06-10T17:01:39.306Z,1.60
2023-06-10T17:04:05.915Z,1.70
2023-06-10T17:06:32.823Z,1.65
2023-06-10T17:08:59.610Z,1.88
2023-06-10T17:11:26.402Z,1.73
2023-06-10T17:13:53.051Z,1.58
2023-06-10T17:16:19.813Z,2.00
2023-06-10T17:18:46.496Z,1.98
2023-06-10T17:21:13.277Z,2.38
2023-06-10T17:23:40.053Z,2.10
2023-06-10T17:26:06.782Z,2.33
2023-06-10T17:28:33.623Z,2.50
2023-06-10T17:31:00.326Z,2.22
2023-06-10T17:33:26.930Z,2.10
2023-06-10T17:35:53.750Z,2.35
2023-06-10T17:38:22.864Z,2.25
2023-06-10T17:40:49.758Z,2.03
2023-06-10T17:43:16.358Z,2.05
2023-06-10T17:45:43.233Z,2.08
2023-06-10T17:48:10.129Z,2.00
2023-06-10T17:50:36.972Z,1.90
2023-06-10T17:53:03.668Z,2.60
2023-06-10T17:55:30.598Z,2.13
2023-06-10T17:57:57.323Z,2.13
2023-06-10T18:00:24.726Z,2.63
2023-06-10T18:02:51.605Z,2.38
2023-06-10T18:05:18.526Z,2.00
2023-06-10T18:07:45.589Z,2.25
2023-06-10T18:10:12.563Z,2.47
2023-06-10T18:12:39.755Z,2.53
2023-06-10T18:15:07.009Z,2.80
2023-06-10T18:17:36.986Z,2.13
2023-06-10T18:20:04.941Z,2.45
2023-06-10T18:22:31.750Z,2.38
2023-06-10T18:24:59.208Z,2.20
2023-06-10T18:27:25.825Z,2.00
2023-06-10T18:29:52.683Z,2.15
2023-06-10T18:32:19.487Z,3.05
2023-06-10T18:34:47.409Z,3.40
2023-06-10T18:37:14.182Z,2.35
2023-06-10T18:39:40.962Z,2.30
2023-06-10T18:42:08.578Z,2.38
2023-06-10T18:44:35.259Z,2.67
2023-06-10T18:47:02.142Z,2.38
2023-06-10T18:49:28.728Z,2.60
2023-06-10T18:51:58.395Z,2.15
2023-06-10T18:54:25.161Z,2.58
2023-06-10T18:56:52.970Z,2.47
2023-06-10T18:59:19.700Z,2.15
2023-06-10T19:01:46.456Z,2.70
2023-06-10T19:04:13.279Z,2.63
2023-06-10T19:06:40.194Z,2.20
2023-06-10T19:09:06.930Z,2.47
2023-06-10T19:11:34.185Z,2.60
2023-06-10T19:14:01.047Z,2.70
2023-06-10T19:16:27.775Z,3.00
2023-06-10T19:18:55.527Z,2.50
2023-06-10T19:21:22.423Z,2.78
2023-06-10T19:23:49.075Z,2.35
2023-06-10T19:26:15.843Z,3.05
2023-06-10T19:28:42.625Z,2.85
2023-06-10T19:31:09.390Z,2.70
2023-06-10T19:33:36.033Z,2.70
2023-06-10T19:36:02.654Z,2.90
2023-06-10T19:38:29.633Z,2.83
2023-06-10T19:40:56.222Z,3.00
2023-06-10T19:43:23.018Z,3.00
2023-06-10T19:45:49.658Z,2.95
2023-06-10T19:48:16.548Z,3.03
2023-06-10T19:50:43.222Z,2.70
2023-06-10T19:53:10.060Z,3.00
2023-06-10T19:55:38.627Z,3.17
2023-06-10T19:58:05.780Z,3.17
2023-06-10T20:00:32.377Z,3.30
2023-06-10T20:02:59.328Z,2.67
2023-06-10T20:05:26.265Z,3.00
2023-06-10T20:07:52.850Z,2.70
2023-06-10T20:10:20.125Z,2.85
2023-06-10T20:12:47.043Z,3.33
2023-06-10T20:15:13.833Z,3.15
2023-06-10T20:17:40.636Z,3.20
2023-06-10T20:20:07.962Z,3.00
2023-06-10T20:22:34.533Z,3.20
2023-06-10T20:25:01.310Z,3.60
2023-06-10T20:27:28.157Z,2.67
2023-06-10T20:29:57.183Z,3.08
2023-06-10T20:32:24.696Z,3.15
2023-06-10T20:34:51.884Z,3.17
2023-06-10T20:37:18.596Z,3.67
2023-06-10T20:39:45.269Z,3.55
2023-06-10T20:42:14.250Z,3.55
2023-06-10T20:44:42.776Z,3.25
2023-06-10T20:47:09.409Z,3.47
2023-06-10T20:49:36.026Z,3.50
2023-06-10T20:52:02.607Z,3.42
2023-06-10T20:54:29.446Z,3.67
2023-06-10T20:56:56.238Z,4.20
2023-06-10T20:59:23.018Z,3.58
2023-06-10T21:01:49.682Z,4.10
2023-06-10T21:04:16.626Z,5.03
2023-06-10T21:06:43.437Z,4.90
2023-06-10T21:09:10.202Z,5.70
2023-06-10T21:11:36.749Z,4.78
2023-06-10T21:14:04.781Z,4.60
2023-06-10T21:16:34.881Z,4.13
2023-06-10T21:19:01.679Z,4.35
2023-06-10T21:21:28.511Z,4.80
2023-06-10T21:23:55.528Z,4.30
2023-06-10T21:26:22.354Z,4.25
2023-06-10T21:28:49.413Z,4.20
2023-06-10T21:31:16.733Z,4.40
2023-06-10T21:33:43.687Z,4.03
2023-06-10T21:36:10.929Z,4.15
2023-06-10T21:38:37.512Z,4.22
2023-06-10T21:41:04.423Z,4.50
2023-06-10T21:43:30.994Z,4.70
2023-06-10T21:45:58.027Z,4.45
2023-06-10T21:48:24.664Z,4.57
2023-06-10T21:50:51.359Z,4.53
2023-06-10T21:53:18.340Z,5.20
2023-06-10T21:55:45.092Z,4.75
2023-06-10T21:58:11.706Z,5.55
2023-06-10T22:00:39.773Z,6.13
2023-06-10T22:03:06.615Z,6.60
2023-06-10T22:05:34.034Z,5.22
2023-06-10T22:08:01.610Z,5.80
2023-06-10T22:10:28.191Z,5.53
2023-06-10T22:12:54.948Z,4.97
2023-06-10T22:15:21.923Z,5.40
2023-06-10T22:17:48.645Z,6.18
2023-06-10T22:20:15.422Z,6.80
2023-06-10T22:22:42.113Z,7.45
2023-06-10T22:25:09.578Z,8.35
2023-06-10T22:27:36.672Z,7.20
2023-06-10T22:30:03.777Z,7.22
2023-06-10T22:32:30.637Z,7.65
2023-06-10T22:34:57.223Z,7.45
2023-06-10T22:37:24.030Z,7.32
2023-06-10T22:39:50.633Z,7.40
2023-06-10T22:42:17.235Z,8.00
2023-06-10T22:44:46.707Z,8.30
2023-06-10T22:47:15.215Z,8.45
2023-06-10T22:49:41.890Z,8.48
2023-06-10T22:52:08.896Z,9.18
2023-06-10T22:54:35.627Z,8.10
2023-06-10T22:57:02.451Z,7.78
2023-06-10T22:59:29.112Z,7.80
2023-06-10T23:01:56.120Z,7.22
2023-06-10T23:04:22.812Z,7.53
2023-06-10T23:06:49.671Z,6.32
2023-06-10T23:09:16.531Z,6.22
2023-06-10T23:11:44.715Z,6.75
2023-06-10T23:14:11.967Z,7.10
2023-06-10T23:16:46.785Z,6.47
2023-06-10T23:19:19.299Z,6.60
2023-06-10T23:21:54.588Z,6.20
2023-06-10T23:24:30.210Z,7.50
2023-06-10T23:27:01.656Z,6.80
2023-06-10T23:29:29.036Z,6.93
2023-06-10T23:31:56.175Z,6.88
2023-06-10T23:34:23.156Z,7.13
2023-06-10T23:36:50.093Z,6.60
2023-06-10T23:39:17.447Z,6.70
2023-06-10T23:41:45.967Z,6.47
2023-06-10T23:44:13.890Z,6.65
2023-06-10T23:46:41.006Z,6.50
2023-06-10T23:49:09.946Z,6.35
2023-06-10T23:51:38.465Z,7.07
2023-06-10T23:54:06.528Z,6.18
2023-06-10T23:56:33.601Z,5.80
2023-06-10T23:59:00.769Z,5.93
